sensor_id;sensor_type;location;lat;lon;timestamp;temperature;humidity
23271;DHT22;11804;51.118;17.058;2022-12-26T00:01:01;7.20;99.90
23271;DHT22;11804;51.118;17.058;2022-12-26T00:03:29;7.20;99.90
23271;DHT22;11804;51.118;17.058;2022-12-26T00:05:56;7.30;99.90
23271;DHT22;11804;51.118;17.058;2022-12-26T00:08:24;7.20;99.90
23271;DHT22;11804;51.118;17.058;2022-12-26T00:10:51;7.20;99.90
23271;DHT22;11804;51.118;17.058;2022-12-26T00:13:19;7.20;99.90
23271;DHT22;11804;51.118;17.058;2022-12-26T00:15:47;7.30;99.90
23271;DHT22;11804;51.118;17.058;2022-12-26T00:18:16;7.20;99.90
23271;DHT22;11804;51.118;17.058;2022-12-26T00:20:43;7.20;99.90
23271;DHT22;11804;51.118;17.058;2022-12-26T00:23:11;7.20;99.90
23271;DHT22;11804;51.118;17.058;2022-12-26T00:25:39;7.20;99.90
23271;DHT22;11804;51.118;17.058;2022-12-26T00:28:06;7.20;99.90
23271;DHT22;11804;51.118;17.058;2022-12-26T00:30:38;7.30;99.90
23271;DHT22;11804;51.118;17.058;2022-12-26T00:33:06;7.30;99.90
23271;DHT22;11804;51.118;17.058;2022-12-26T00:35:33;7.30;99.90
23271;DHT22;11804;51.118;17.058;2022-12-26T00:38:01;7.30;99.90
23271;DHT22;11804;51.118;17.058;2022-12-26T00:40:28;7.30;99.90
23271;DHT22;11804;51.118;17.058;2022-12-26T00:42:56;7.30;99.90
23271;DHT22;11804;51.118;17.058;2022-12-26T00:45:23;7.30;99.90
23271;DHT22;11804;51.118;17.058;2022-12-26T00:47:51;7.30;99.90
23271;DHT22;11804;51.118;17.058;2022-12-26T00:50:19;7.30;99.90
23271;DHT22;11804;51.118;17.058;2022-12-26T00:52:46;7.30;99.90
23271;DHT22;11804;51.118;17.058;2022-12-26T00:55:14;7.20;99.90
23271;DHT22;11804;51.118;17.058;2022-12-26T00:57:41;7.30;99.90
23271;DHT22;11804;51.118;17.058;2022-12-26T01:00:10;7.30;99.90
23271;DHT22;11804;51.118;17.058;2022-12-26T01:02:37;7.30;99.90
23271;DHT22;11804;51.118;17.058;2022-12-26T01:05:07;7.20;99.90
23271;DHT22;11804;51.118;17.058;2022-12-26T01:07:36;7.30;99.90
23271;DHT22;11804;51.118;17.058;2022-12-26T01:10:06;7.30;99.90
23271;DHT22;11804;51.118;17.058;2022-12-26T01:12:34;7.30;99.90
23271;DHT22;11804;51.118;17.058;2022-12-26T01:15:02;7.30;99.90
23271;DHT22;11804;51.118;17.058;2022-12-26T01:17:30;7.30;99.90
23271;DHT22;11804;51.118;17.058;2022-12-26T01:19:57;7.40;99.90
23271;DHT22;11804;51.118;17.058;2022-12-26T01:22:27;7.40;99.90
23271;DHT22;11804;51.118;17.058;2022-12-26T01:24:56;7.40;99.90
23271;DHT22;11804;51.118;17.058;2022-12-26T01:27:25;7.40;99.90
23271;DHT22;11804;51.118;17.058;2022-12-26T01:29:53;7.40;99.90
23271;DHT22;11804;51.118;17.058;2022-12-26T01:32:22;7.40;99.90
23271;DHT22;11804;51.118;17.058;2022-12-26T01:34:50;7.40;99.90
23271;DHT22;11804;51.118;17.058;2022-12-26T01:37:19;7.30;99.90
23271;DHT22;11804;51.118;17.058;2022-12-26T01:39:48;7.30;99.90
23271;DHT22;11804;51.118;17.058;2022-12-26T01:42:18;7.30;99.90
23271;DHT22;11804;51.118;17.058;2022-12-26T01:45:23;7.30;99.90
23271;DHT22;11804;51.118;17.058;2022-12-26T01:48:05;7.30;99.90
23271;DHT22;11804;51.118;17.058;2022-12-26T01:50:55;7.30;99.90
23271;DHT22;11804;51.118;17.058;2022-12-26T01:53:27;7.30;99.90
23271;DHT22;11804;51.118;17.058;2022-12-26T01:56:00;7.30;99.90
23271;DHT22;11804;51.118;17.058;2022-12-26T01:58:35;7.30;99.90
23271;DHT22;11804;51.118;17.058;2022-12-26T02:01:04;7.30;99.90
23271;DHT22;11804;51.118;17.058;2022-12-26T02:03:34;7.30;99.90
23271;DHT22;11804;51.118;17.058;2022-12-26T02:06:21;7.30;99.90
23271;DHT22;11804;51.118;17.058;2022-12-26T02:08:49;7.30;99.90
23271;DHT22;11804;51.118;17.058;2022-12-26T02:11:30;7.30;99.90
23271;DHT22;11804;51.118;17.058;2022-12-26T02:13:53;7.30;99.90
23271;DHT22;11804;51.118;17.058;2022-12-26T02:16:21;7.30;99.90
23271;DHT22;11804;51.118;17.058;2022-12-26T02:18:49;7.40;99.90
23271;DHT22;11804;51.118;17.058;2022-12-26T02:29:42;7.30;99.90
23271;DHT22;11804;51.118;17.058;2022-12-26T02:43:34;7.30;99.90
23271;DHT22;11804;51.118;17.058;2022-12-26T02:49:14;7.30;99.90
23271;DHT22;11804;51.118;17.058;2022-12-26T02:55:00;7.30;99.90
23271;DHT22;11804;51.118;17.058;2022-12-26T02:57:58;7.30;99.90
23271;DHT22;11804;51.118;17.058;2022-12-26T03:00:45;7.30;99.90
23271;DHT22;11804;51.118;17.058;2022-12-26T03:03:34;7.30;99.90
23271;DHT22;11804;51.118;17.058;2022-12-26T03:06:23;7.30;99.90
23271;DHT22;11804;51.118;17.058;2022-12-26T03:09:12;7.20;99.90
23271;DHT22;11804;51.118;17.058;2022-12-26T03:12:06;7.20;99.90
23271;DHT22;11804;51.118;17.058;2022-12-26T03:14:54;7.20;99.90
23271;DHT22;11804;51.118;17.058;2022-12-26T03:17:49;7.20;99.90
23271;DHT22;11804;51.118;17.058;2022-12-26T03:20:16;7.20;99.90
23271;DHT22;11804;51.118;17.058;2022-12-26T03:22:56;7.20;99.90
23271;DHT22;11804;51.118;17.058;2022-12-26T03:28:16;7.30;99.90
23271;DHT22;11804;51.118;17.058;2022-12-26T03:30:44;7.30;99.90
23271;DHT22;11804;51.118;17.058;2022-12-26T03:33:26;7.30;99.90
23271;DHT22;11804;51.118;17.058;2022-12-26T03:36:05;7.30;99.90
23271;DHT22;11804;51.118;17.058;2022-12-26T03:38:52;7.30;99.90
23271;DHT22;11804;51.118;17.058;2022-12-26T03:41:26;7.40;99.90
23271;DHT22;11804;51.118;17.058;2022-12-26T03:44:31;7.40;99.90
23271;DHT22;11804;51.118;17.058;2022-12-26T03:50:41;7.40;99.90
23271;DHT22;11804;51.118;17.058;2022-12-26T03:53:37;7.40;99.90
23271;DHT22;11804;51.118;17.058;2022-12-26T03:56:29;7.50;99.90
23271;DHT22;11804;51.118;17.058;2022-12-26T03:59:14;7.50;99.90
23271;DHT22;11804;51.118;17.058;2022-12-26T04:02:03;7.60;99.90
23271;DHT22;11804;51.118;17.058;2022-12-26T04:04:50;7.60;99.90
23271;DHT22;11804;51.118;17.058;2022-12-26T04:07:39;7.60;99.90
23271;DHT22;11804;51.118;17.058;2022-12-26T04:10:30;7.60;99.90
23271;DHT22;11804;51.118;17.058;2022-12-26T04:13:19;7.70;99.90
23271;DHT22;11804;51.118;17.058;2022-12-26T04:16:04;7.70;99.90
23271;DHT22;11804;51.118;17.058;2022-12-26T04:18:59;7.70;99.90
23271;DHT22;11804;51.118;17.058;2022-12-26T04:24:58;7.80;99.90
23271;DHT22;11804;51.118;17.058;2022-12-26T04:27:40;7.80;99.90
23271;DHT22;11804;51.118;17.058;2022-12-26T04:30:26;7.90;99.90
23271;DHT22;11804;51.118;17.058;2022-12-26T04:33:17;7.90;99.90
23271;DHT22;11804;51.118;17.058;2022-12-26T04:36:10;7.90;99.90
23271;DHT22;11804;51.118;17.058;2022-12-26T04:38:53;7.80;99.90
23271;DHT22;11804;51.118;17.058;2022-12-26T04:41:41;7.90;99.90
23271;DHT22;11804;51.118;17.058;2022-12-26T04:44:28;7.90;99.90
23271;DHT22;11804;51.118;17.058;2022-12-26T04:46:56;8.00;99.90
23271;DHT22;11804;51.118;17.058;2022-12-26T04:49:24;8.10;99.90
23271;DHT22;11804;51.118;17.058;2022-12-26T04:52:12;8.10;99.90
23271;DHT22;11804;51.118;17.058;2022-12-26T04:54:41;8.10;99.90
23271;DHT22;11804;51.118;17.058;2022-12-26T04:57:10;8.20;99.90
23271;DHT22;11804;51.118;17.058;2022-12-26T04:59:37;8.20;99.90
23271;DHT22;11804;51.118;17.058;2022-12-26T05:02:05;8.20;99.90
23271;DHT22;11804;51.118;17.058;2022-12-26T05:04:51;8.30;99.90
23271;DHT22;11804;51.118;17.058;2022-12-26T05:07:36;8.30;99.90
23271;DHT22;11804;51.118;17.058;2022-12-26T05:10:27;8.40;99.90
23271;DHT22;11804;51.118;17.058;2022-12-26T05:12:55;8.50;99.90
23271;DHT22;11804;51.118;17.058;2022-12-26T05:15:23;8.50;99.90
23271;DHT22;11804;51.118;17.058;2022-12-26T05:17:51;8.60;99.90
23271;DHT22;11804;51.118;17.058;2022-12-26T05:20:38;8.70;99.90
23271;DHT22;11804;51.118;17.058;2022-12-26T05:23:25;8.80;99.90
23271;DHT22;11804;51.118;17.058;2022-12-26T05:26:16;8.80;99.90
23271;DHT22;11804;51.118;17.058;2022-12-26T05:29:03;8.90;99.90
23271;DHT22;11804;51.118;17.058;2022-12-26T05:31:30;8.90;99.90
23271;DHT22;11804;51.118;17.058;2022-12-26T05:33:58;8.80;99.90
23271;DHT22;11804;51.118;17.058;2022-12-26T05:36:42;8.90;99.90
23271;DHT22;11804;51.118;17.058;2022-12-26T05:39:10;8.90;99.90
23271;DHT22;11804;51.118;17.058;2022-12-26T05:41:38;8.90;99.90
23271;DHT22;11804;51.118;17.058;2022-12-26T05:44:07;8.90;99.90
23271;DHT22;11804;51.118;17.058;2022-12-26T05:46:36;8.90;99.90
23271;DHT22;11804;51.118;17.058;2022-12-26T05:49:04;8.90;99.90
23271;DHT22;11804;51.118;17.058;2022-12-26T05:51:32;8.90;99.90
23271;DHT22;11804;51.118;17.058;2022-12-26T05:54:00;8.90;99.90
23271;DHT22;11804;51.118;17.058;2022-12-26T05:56:28;8.90;99.90
23271;DHT22;11804;51.118;17.058;2022-12-26T05:58:58;8.90;99.90
23271;DHT22;11804;51.118;17.058;2022-12-26T06:01:27;8.90;99.90
23271;DHT22;11804;51.118;17.058;2022-12-26T06:03:57;8.90;99.90
23271;DHT22;11804;51.118;17.058;2022-12-26T06:06:25;9.00;99.90
23271;DHT22;11804;51.118;17.058;2022-12-26T06:08:55;9.00;99.90
23271;DHT22;11804;51.118;17.058;2022-12-26T06:11:23;9.00;99.90
23271;DHT22;11804;51.118;17.058;2022-12-26T06:13:52;9.00;99.90
23271;DHT22;11804;51.118;17.058;2022-12-26T06:16:20;9.00;99.90
23271;DHT22;11804;51.118;17.058;2022-12-26T06:18:48;9.10;99.90
23271;DHT22;11804;51.118;17.058;2022-12-26T06:21:18;9.20;99.90
23271;DHT22;11804;51.118;17.058;2022-12-26T06:23:46;9.30;99.90
23271;DHT22;11804;51.118;17.058;2022-12-26T06:26:15;9.40;99.90
23271;DHT22;11804;51.118;17.058;2022-12-26T06:28:43;9.50;99.90
23271;DHT22;11804;51.118;17.058;2022-12-26T06:31:14;9.50;99.90
23271;DHT22;11804;51.118;17.058;2022-12-26T06:33:43;9.50;99.90
23271;DHT22;11804;51.118;17.058;2022-12-26T06:36:18;9.60;99.90
23271;DHT22;11804;51.118;17.058;2022-12-26T06:38:42;9.60;99.90
23271;DHT22;11804;51.118;17.058;2022-12-26T06:41:13;9.60;99.90
23271;DHT22;11804;51.118;17.058;2022-12-26T06:43:42;9.70;99.90
23271;DHT22;11804;51.118;17.058;2022-12-26T06:46:12;9.70;99.90
23271;DHT22;11804;51.118;17.058;2022-12-26T06:48:40;9.70;99.90
23271;DHT22;11804;51.118;17.058;2022-12-26T06:51:13;9.60;99.90
23271;DHT22;11804;51.118;17.058;2022-12-26T06:53:41;9.60;99.90
23271;DHT22;11804;51.118;17.058;2022-12-26T06:56:16;9.60;99.90
23271;DHT22;11804;51.118;17.058;2022-12-26T06:58:40;9.60;99.90
23271;DHT22;11804;51.118;17.058;2022-12-26T07:01:15;9.60;99.90
23271;DHT22;11804;51.118;17.058;2022-12-26T07:03:45;9.50;99.90
23271;DHT22;11804;51.118;17.058;2022-12-26T07:06:31;9.50;99.90
23271;DHT22;11804;51.118;17.058;2022-12-26T07:09:11;9.50;99.90
23271;DHT22;11804;51.118;17.058;2022-12-26T07:11:38;9.50;99.90
23271;DHT22;11804;51.118;17.058;2022-12-26T07:14:07;9.50;99.90
23271;DHT22;11804;51.118;17.058;2022-12-26T07:16:35;9.50;99.90
23271;DHT22;11804;51.118;17.058;2022-12-26T07:19:04;9.50;99.90
23271;DHT22;11804;51.118;17.058;2022-12-26T07:21:32;9.50;99.90
23271;DHT22;11804;51.118;17.058;2022-12-26T07:23:59;9.50;99.90
23271;DHT22;11804;51.118;17.058;2022-12-26T07:26:27;9.50;99.90
23271;DHT22;11804;51.118;17.058;2022-12-26T07:28:57;9.50;99.90
23271;DHT22;11804;51.118;17.058;2022-12-26T07:31:25;9.60;99.90
23271;DHT22;11804;51.118;17.058;2022-12-26T07:33:54;9.60;99.90
23271;DHT22;11804;51.118;17.058;2022-12-26T07:36:22;9.60;99.90
23271;DHT22;11804;51.118;17.058;2022-12-26T07:38:53;9.60;99.90
23271;DHT22;11804;51.118;17.058;2022-12-26T07:41:21;9.60;99.90
23271;DHT22;11804;51.118;17.058;2022-12-26T07:44:11;9.70;99.90
23271;DHT22;11804;51.118;17.058;2022-12-26T07:46:39;9.60;99.90
23271;DHT22;11804;51.118;17.058;2022-12-26T07:49:07;9.60;99.90
23271;DHT22;11804;51.118;17.058;2022-12-26T07:51:35;9.60;99.90
23271;DHT22;11804;51.118;17.058;2022-12-26T07:54:03;9.60;99.90
23271;DHT22;11804;51.118;17.058;2022-12-26T07:56:33;9.60;99.90
23271;DHT22;11804;51.118;17.058;2022-12-26T07:59:01;9.70;99.90
23271;DHT22;11804;51.118;17.058;2022-12-26T08:01:29;9.70;99.90
23271;DHT22;11804;51.118;17.058;2022-12-26T08:03:56;9.70;99.90
23271;DHT22;11804;51.118;17.058;2022-12-26T08:06:26;9.70;99.90
23271;DHT22;11804;51.118;17.058;2022-12-26T08:08:53;9.70;99.90
23271;DHT22;11804;51.118;17.058;2022-12-26T08:11:23;9.80;99.90
23271;DHT22;11804;51.118;17.058;2022-12-26T08:13:51;9.80;99.90
23271;DHT22;11804;51.118;17.058;2022-12-26T08:16:20;9.80;99.90
23271;DHT22;11804;51.118;17.058;2022-12-26T08:18:47;9.80;99.90
23271;DHT22;11804;51.118;17.058;2022-12-26T08:21:15;9.80;99.90
23271;DHT22;11804;51.118;17.058;2022-12-26T08:23:43;9.80;99.90
23271;DHT22;11804;51.118;17.058;2022-12-26T08:26:12;9.80;99.90
23271;DHT22;11804;51.118;17.058;2022-12-26T08:28:42;9.80;99.90
23271;DHT22;11804;51.118;17.058;2022-12-26T08:31:10;9.90;99.90
23271;DHT22;11804;51.118;17.058;2022-12-26T08:33:39;9.90;99.90
23271;DHT22;11804;51.118;17.058;2022-12-26T08:36:09;9.90;99.90
23271;DHT22;11804;51.118;17.058;2022-12-26T08:38:39;9.90;99.90
23271;DHT22;11804;51.118;17.058;2022-12-26T08:41:07;9.80;99.90
23271;DHT22;11804;51.118;17.058;2022-12-26T08:43:35;9.70;99.90
23271;DHT22;11804;51.118;17.058;2022-12-26T08:46:05;9.70;99.90
23271;DHT22;11804;51.118;17.058;2022-12-26T08:48:33;9.70;99.90
23271;DHT22;11804;51.118;17.058;2022-12-26T08:51:04;9.70;99.90
23271;DHT22;11804;51.118;17.058;2022-12-26T08:53:33;9.70;99.90
23271;DHT22;11804;51.118;17.058;2022-12-26T08:56:03;9.60;99.90
23271;DHT22;11804;51.118;17.058;2022-12-26T08:58:31;9.60;99.90
23271;DHT22;11804;51.118;17.058;2022-12-26T09:01:11;9.60;99.90
23271;DHT22;11804;51.118;17.058;2022-12-26T09:03:40;9.60;99.90
23271;DHT22;11804;51.118;17.058;2022-12-26T09:06:08;9.60;99.90
23271;DHT22;11804;51.118;17.058;2022-12-26T09:08:37;9.60;99.90
23271;DHT22;11804;51.118;17.058;2022-12-26T09:11:15;9.70;99.90
23271;DHT22;11804;51.118;17.058;2022-12-26T09:13:39;9.70;99.90
23271;DHT22;11804;51.118;17.058;2022-12-26T09:16:11;9.80;99.90
23271;DHT22;11804;51.118;17.058;2022-12-26T09:18:38;10.00;99.90
23271;DHT22;11804;51.118;17.058;2022-12-26T09:21:08;10.10;99.90
23271;DHT22;11804;51.118;17.058;2022-12-26T09:23:36;10.10;99.90
23271;DHT22;11804;51.118;17.058;2022-12-26T09:26:07;10.00;99.90
23271;DHT22;11804;51.118;17.058;2022-12-26T09:28:35;10.00;99.90
23271;DHT22;11804;51.118;17.058;2022-12-26T09:31:05;10.10;99.90
23271;DHT22;11804;51.118;17.058;2022-12-26T09:33:33;10.10;99.90
23271;DHT22;11804;51.118;17.058;2022-12-26T09:36:08;10.20;99.90
23271;DHT22;11804;51.118;17.058;2022-12-26T09:38:36;10.20;99.90
23271;DHT22;11804;51.118;17.058;2022-12-26T09:44:19;10.60;99.90
23271;DHT22;11804;51.118;17.058;2022-12-26T09:49:49;11.10;99.90
23271;DHT22;11804;51.118;17.058;2022-12-26T09:52:07;11.80;99.90
23271;DHT22;11804;51.118;17.058;2022-12-26T09:54:37;12.30;99.90
23271;DHT22;11804;51.118;17.058;2022-12-26T09:57:17;12.80;99.90
23271;DHT22;11804;51.118;17.058;2022-12-26T09:59:51;13.10;99.90
23271;DHT22;11804;51.118;17.058;2022-12-26T10:02:20;13.20;99.90
23271;DHT22;11804;51.118;17.058;2022-12-26T10:04:50;13.60;99.90
23271;DHT22;11804;51.118;17.058;2022-12-26T10:12:41;13.60;99.90
23271;DHT22;11804;51.118;17.058;2022-12-26T10:15:23;13.00;99.90
23271;DHT22;11804;51.118;17.058;2022-12-26T10:17:56;12.50;99.90
23271;DHT22;11804;51.118;17.058;2022-12-26T10:21:20;12.10;99.90
23271;DHT22;11804;51.118;17.058;2022-12-26T10:25:55;12.00;99.90
23271;DHT22;11804;51.118;17.058;2022-12-26T10:30:54;12.70;99.90
23271;DHT22;11804;51.118;17.058;2022-12-26T10:33:36;12.70;99.90
23271;DHT22;11804;51.118;17.058;2022-12-26T10:35:53;12.50;99.90
23271;DHT22;11804;51.118;17.058;2022-12-26T10:40:53;12.10;99.90
23271;DHT22;11804;51.118;17.058;2022-12-26T10:43:33;12.10;99.90
23271;DHT22;11804;51.118;17.058;2022-12-26T10:46:14;12.00;99.90
23271;DHT22;11804;51.118;17.058;2022-12-26T10:48:42;11.90;99.90
23271;DHT22;11804;51.118;17.058;2022-12-26T10:51:10;11.80;99.90
23271;DHT22;11804;51.118;17.058;2022-12-26T10:53:42;11.60;99.90
23271;DHT22;11804;51.118;17.058;2022-12-26T10:56:10;11.60;99.90
23271;DHT22;11804;51.118;17.058;2022-12-26T10:58:39;11.50;99.90
23271;DHT22;11804;51.118;17.058;2022-12-26T11:01:29;11.40;99.90
23271;DHT22;11804;51.118;17.058;2022-12-26T11:04:00;11.40;99.90
23271;DHT22;11804;51.118;17.058;2022-12-26T11:06:31;11.30;99.90
23271;DHT22;11804;51.118;17.058;2022-12-26T11:08:59;11.30;99.90
23271;DHT22;11804;51.118;17.058;2022-12-26T11:11:34;11.40;99.90
23271;DHT22;11804;51.118;17.058;2022-12-26T11:14:00;11.60;99.90
23271;DHT22;11804;51.118;17.058;2022-12-26T11:16:33;11.70;99.90
23271;DHT22;11804;51.118;17.058;2022-12-26T11:19:00;11.90;99.90
23271;DHT22;11804;51.118;17.058;2022-12-26T11:21:30;11.90;99.90
23271;DHT22;11804;51.118;17.058;2022-12-26T11:24:11;11.90;99.90
23271;DHT22;11804;51.118;17.058;2022-12-26T11:26:40;11.90;99.90
23271;DHT22;11804;51.118;17.058;2022-12-26T11:31:58;12.00;99.90
23271;DHT22;11804;51.118;17.058;2022-12-26T11:34:42;12.00;99.90
23271;DHT22;11804;51.118;17.058;2022-12-26T11:37:22;12.10;99.90
23271;DHT22;11804;51.118;17.058;2022-12-26T11:39:48;12.00;99.90
23271;DHT22;11804;51.118;17.058;2022-12-26T11:42:19;11.90;99.90
23271;DHT22;11804;51.118;17.058;2022-12-26T11:44:50;11.80;99.90
23271;DHT22;11804;51.118;17.058;2022-12-26T11:47:21;11.90;99.90
23271;DHT22;11804;51.118;17.058;2022-12-26T11:50:04;11.90;99.90
23271;DHT22;11804;51.118;17.058;2022-12-26T11:52:43;11.90;99.90
23271;DHT22;11804;51.118;17.058;2022-12-26T11:55:30;12.00;99.90
23271;DHT22;11804;51.118;17.058;2022-12-26T11:58:22;12.00;99.90
23271;DHT22;11804;51.118;17.058;2022-12-26T12:03:30;11.90;99.90
23271;DHT22;11804;51.118;17.058;2022-12-26T12:06:07;11.90;99.90
23271;DHT22;11804;51.118;17.058;2022-12-26T12:08:39;11.90;99.90
23271;DHT22;11804;51.118;17.058;2022-12-26T12:16:38;11.90;99.90
23271;DHT22;11804;51.118;17.058;2022-12-26T12:30:18;11.80;99.90
23271;DHT22;11804;51.118;17.058;2022-12-26T12:36:09;11.80;99.90
23271;DHT22;11804;51.118;17.058;2022-12-26T12:39:09;11.80;99.90
23271;DHT22;11804;51.118;17.058;2022-12-26T12:44:28;11.80;99.90
23271;DHT22;11804;51.118;17.058;2022-12-26T12:49:50;11.80;99.90
23271;DHT22;11804;51.118;17.058;2022-12-26T12:55:30;11.80;99.90
23271;DHT22;11804;51.118;17.058;2022-12-26T12:58:26;11.80;99.90
23271;DHT22;11804;51.118;17.058;2022-12-26T13:00:43;11.80;99.90
23271;DHT22;11804;51.118;17.058;2022-12-26T13:06:04;11.80;99.90
23271;DHT22;11804;51.118;17.058;2022-12-26T13:11:12;11.80;99.90
23271;DHT22;11804;51.118;17.058;2022-12-26T13:13:59;11.80;99.90
23271;DHT22;11804;51.118;17.058;2022-12-26T13:16:39;11.70;99.90
23271;DHT22;11804;51.118;17.058;2022-12-26T13:19:03;11.70;99.90
23271;DHT22;11804;51.118;17.058;2022-12-26T13:21:34;11.70;99.90
23271;DHT22;11804;51.118;17.058;2022-12-26T13:24:19;11.80;99.90
23271;DHT22;11804;51.118;17.058;2022-12-26T13:27:10;11.80;99.90
23271;DHT22;11804;51.118;17.058;2022-12-26T13:29:46;11.70;99.90
23271;DHT22;11804;51.118;17.058;2022-12-26T13:32:20;11.70;99.90
23271;DHT22;11804;51.118;17.058;2022-12-26T13:34:49;11.80;99.90
23271;DHT22;11804;51.118;17.058;2022-12-26T13:40:15;11.80;99.90
23271;DHT22;11804;51.118;17.058;2022-12-26T13:43:08;11.80;99.90
23271;DHT22;11804;51.118;17.058;2022-12-26T13:45:54;11.80;99.90
23271;DHT22;11804;51.118;17.058;2022-12-26T13:51:02;11.80;99.90
23271;DHT22;11804;51.118;17.058;2022-12-26T13:53:32;11.80;99.90
23271;DHT22;11804;51.118;17.058;2022-12-26T13:56:09;11.80;99.90
23271;DHT22;11804;51.118;17.058;2022-12-26T13:59:01;11.70;99.90
23271;DHT22;11804;51.118;17.058;2022-12-26T14:01:45;11.70;99.90
23271;DHT22;11804;51.118;17.058;2022-12-26T14:04:38;11.70;99.90
23271;DHT22;11804;51.118;17.058;2022-12-26T14:15:52;11.70;99.90
23271;DHT22;11804;51.118;17.058;2022-12-26T14:18:37;11.60;99.90
23271;DHT22;11804;51.118;17.058;2022-12-26T14:32:39;11.50;99.90
23271;DHT22;11804;51.118;17.058;2022-12-26T14:35:13;11.50;99.90
23271;DHT22;11804;51.118;17.058;2022-12-26T14:37:43;11.50;99.90
23271;DHT22;11804;51.118;17.058;2022-12-26T14:43:08;11.40;99.90
23271;DHT22;11804;51.118;17.058;2022-12-26T14:45:39;11.40;99.90
23271;DHT22;11804;51.118;17.058;2022-12-26T14:50:52;11.40;99.90
23271;DHT22;11804;51.118;17.058;2022-12-26T14:53:29;11.40;99.90
23271;DHT22;11804;51.118;17.058;2022-12-26T14:56:01;11.40;99.90
23271;DHT22;11804;51.118;17.058;2022-12-26T14:58:48;11.50;99.90
23271;DHT22;11804;51.118;17.058;2022-12-26T15:18:43;11.40;99.90
23271;DHT22;11804;51.118;17.058;2022-12-26T15:31:58;11.30;99.90
23271;DHT22;11804;51.118;17.058;2022-12-26T15:56:38;11.20;99.90
23271;DHT22;11804;51.118;17.058;2022-12-26T15:59:40;11.20;99.90
23271;DHT22;11804;51.118;17.058;2022-12-26T16:07:56;11.20;99.90
23271;DHT22;11804;51.118;17.058;2022-12-26T16:10:32;11.20;99.90
23271;DHT22;11804;51.118;17.058;2022-12-26T16:15:59;11.20;99.90
23271;DHT22;11804;51.118;17.058;2022-12-26T16:18:29;11.30;99.90
23271;DHT22;11804;51.118;17.058;2022-12-26T16:21:03;11.50;99.90
23271;DHT22;11804;51.118;17.058;2022-12-26T16:23:50;11.40;99.90
23271;DHT22;11804;51.118;17.058;2022-12-26T16:26:24;11.30;99.90
23271;DHT22;11804;51.118;17.058;2022-12-26T16:28:53;11.30;99.90
23271;DHT22;11804;51.118;17.058;2022-12-26T16:31:23;11.30;99.90
23271;DHT22;11804;51.118;17.058;2022-12-26T16:33:53;11.10;99.90
23271;DHT22;11804;51.118;17.058;2022-12-26T16:36:24;10.90;99.90
23271;DHT22;11804;51.118;17.058;2022-12-26T16:38:52;10.80;99.90
23271;DHT22;11804;51.118;17.058;2022-12-26T16:41:25;10.60;99.90
23271;DHT22;11804;51.118;17.058;2022-12-26T16:43:55;10.50;99.90
23271;DHT22;11804;51.118;17.058;2022-12-26T16:46:27;10.50;99.90
23271;DHT22;11804;51.118;17.058;2022-12-26T16:48:57;10.40;99.90
23271;DHT22;11804;51.118;17.058;2022-12-26T16:51:43;10.30;99.90
23271;DHT22;11804;51.118;17.058;2022-12-26T16:57:11;10.30;99.90
23271;DHT22;11804;51.118;17.058;2022-12-26T17:00:00;10.20;99.90
23271;DHT22;11804;51.118;17.058;2022-12-26T17:02:27;10.20;99.90
23271;DHT22;11804;51.118;17.058;2022-12-26T17:05:01;10.20;99.90
23271;DHT22;11804;51.118;17.058;2022-12-26T17:07:29;10.20;99.90
23271;DHT22;11804;51.118;17.058;2022-12-26T17:10:00;10.20;99.90
23271;DHT22;11804;51.118;17.058;2022-12-26T17:12:30;10.10;99.90
23271;DHT22;11804;51.118;17.058;2022-12-26T17:14:59;10.20;99.90
23271;DHT22;11804;51.118;17.058;2022-12-26T17:17:36;10.10;99.90
23271;DHT22;11804;51.118;17.058;2022-12-26T17:20:30;10.10;99.90
23271;DHT22;11804;51.118;17.058;2022-12-26T17:22:56;10.10;99.90
23271;DHT22;11804;51.118;17.058;2022-12-26T17:25:32;10.00;99.90
23271;DHT22;11804;51.118;17.058;2022-12-26T17:28:19;10.00;99.90
23271;DHT22;11804;51.118;17.058;2022-12-26T17:30:45;10.00;99.90
23271;DHT22;11804;51.118;17.058;2022-12-26T17:35:49;10.00;99.90
23271;DHT22;11804;51.118;17.058;2022-12-26T17:38:23;10.00;99.90
23271;DHT22;11804;51.118;17.058;2022-12-26T17:40:57;9.90;99.90
23271;DHT22;11804;51.118;17.058;2022-12-26T17:43:30;10.00;99.90
23271;DHT22;11804;51.118;17.058;2022-12-26T17:45:59;9.90;99.90
23271;DHT22;11804;51.118;17.058;2022-12-26T17:48:27;10.00;99.90
23271;DHT22;11804;51.118;17.058;2022-12-26T17:51:03;10.00;99.90
23271;DHT22;11804;51.118;17.058;2022-12-26T17:53:35;10.00;99.90
23271;DHT22;11804;51.118;17.058;2022-12-26T17:56:12;10.00;99.90
23271;DHT22;11804;51.118;17.058;2022-12-26T17:58:35;10.00;99.90
23271;DHT22;11804;51.118;17.058;2022-12-26T18:01:03;10.00;99.90
23271;DHT22;11804;51.118;17.058;2022-12-26T18:03:31;10.00;99.90
23271;DHT22;11804;51.118;17.058;2022-12-26T18:05:58;10.00;99.90
23271;DHT22;11804;51.118;17.058;2022-12-26T18:08:36;10.00;99.90
23271;DHT22;11804;51.118;17.058;2022-12-26T18:11:02;10.00;99.90
23271;DHT22;11804;51.118;17.058;2022-12-26T18:13:30;10.00;99.90
23271;DHT22;11804;51.118;17.058;2022-12-26T18:15:58;10.00;99.90
23271;DHT22;11804;51.118;17.058;2022-12-26T18:18:41;10.00;99.90
23271;DHT22;11804;51.118;17.058;2022-12-26T18:21:12;10.00;99.90
23271;DHT22;11804;51.118;17.058;2022-12-26T18:23:40;10.00;99.90
23271;DHT22;11804;51.118;17.058;2022-12-26T18:26:14;10.00;99.90
23271;DHT22;11804;51.118;17.058;2022-12-26T18:28:38;10.00;99.90
23271;DHT22;11804;51.118;17.058;2022-12-26T18:31:12;10.10;99.90
23271;DHT22;11804;51.118;17.058;2022-12-26T18:33:37;10.20;99.90
23271;DHT22;11804;51.118;17.058;2022-12-26T18:36:09;10.30;99.90
23271;DHT22;11804;51.118;17.058;2022-12-26T18:38:36;10.40;99.90
23271;DHT22;11804;51.118;17.058;2022-12-26T18:41:04;10.20;99.90
23271;DHT22;11804;51.118;17.058;2022-12-26T18:43:32;10.10;99.90
23271;DHT22;11804;51.118;17.058;2022-12-26T18:45:59;10.00;99.90
23271;DHT22;11804;51.118;17.058;2022-12-26T18:48:27;10.00;99.90
23271;DHT22;11804;51.118;17.058;2022-12-26T18:50:54;10.00;99.90
23271;DHT22;11804;51.118;17.058;2022-12-26T18:53:22;9.90;99.90
23271;DHT22;11804;51.118;17.058;2022-12-26T18:55:49;9.90;99.90
23271;DHT22;11804;51.118;17.058;2022-12-26T18:58:18;9.90;99.90
23271;DHT22;11804;51.118;17.058;2022-12-26T19:00:46;9.90;99.90
23271;DHT22;11804;51.118;17.058;2022-12-26T19:03:13;9.90;99.90
23271;DHT22;11804;51.118;17.058;2022-12-26T19:05:41;9.90;99.90
23271;DHT22;11804;51.118;17.058;2022-12-26T19:08:10;9.90;99.90
23271;DHT22;11804;51.118;17.058;2022-12-26T19:10:37;9.90;99.90
23271;DHT22;11804;51.118;17.058;2022-12-26T19:13:08;9.90;99.90